createdAt,value
2018-07-04T00:00:33.459Z,0.00
2018-07-04T00:01:33.444Z,0.00
2018-07-04T00:02:33.441Z,0.00
2018-07-04T00:03:33.414Z,0.00
2018-07-04T00:04:33.403Z,0.00
2018-07-04T00:05:33.387Z,0.00
2018-07-04T00:06:33.383Z,0.00
2018-07-04T00:07:33.356Z,0.00
2018-07-04T00:08:33.342Z,0.00
2018-07-04T00:09:33.325Z,0.00
2018-07-04T00:10:33.312Z,0.00
2018-07-04T00:11:33.299Z,0.00
2018-07-04T00:12:33.291Z,0.00
2018-07-04T00:13:33.270Z,0.00
2018-07-04T00:14:33.252Z,0.00
2018-07-04T00:15:33.241Z,0.00
2018-07-04T00:16:33.224Z,0.00
2018-07-04T00:17:33.224Z,0.00
2018-07-04T00:18:33.193Z,0.00
2018-07-04T00:19:33.180Z,0.00
2018-07-04T00:20:33.165Z,0.00
2018-07-04T00:21:33.154Z,0.00
2018-07-04T00:22:33.144Z,0.00
2018-07-04T00:23:33.125Z,0.00
2018-07-04T00:24:33.107Z,0.00
2018-07-04T00:25:33.094Z,0.00
2018-07-04T00:26:33.076Z,0.00
2018-07-04T00:27:33.071Z,0.00
2018-07-04T00:28:33.047Z,0.00
2018-07-04T00:29:33.032Z,0.00
2018-07-04T00:30:33.017Z,0.00
2018-07-04T00:31:33.003Z,0.00
2018-07-04T00:32:33.002Z,0.00
2018-07-04T00:33:32.975Z,0.00
2018-07-04T00:34:32.956Z,0.00
2018-07-04T00:35:32.943Z,0.00
2018-07-04T00:36:32.928Z,0.00
2018-07-04T00:37:32.928Z,0.00
2018-07-04T00:38:32.898Z,0.00
2018-07-04T00:39:32.882Z,0.00
2018-07-04T00:40:32.868Z,0.00
2018-07-04T00:41:32.857Z,0.00
2018-07-04T00:42:32.853Z,0.00
2018-07-04T00:43:32.824Z,0.00
2018-07-04T00:44:32.814Z,0.00
2018-07-04T00:45:32.796Z,0.00
2018-07-04T00:46:32.780Z,0.00
2018-07-04T00:47:32.781Z,0.00
2018-07-04T00:48:32.750Z,0.00
2018-07-04T00:49:32.736Z,0.00
2018-07-04T00:50:32.722Z,0.00
2018-07-04T00:51:32.706Z,0.00
2018-07-04T00:52:32.692Z,0.00
2018-07-04T00:53:32.692Z,0.00
2018-07-04T00:54:32.664Z,0.00
2018-07-04T00:55:32.647Z,0.00
2018-07-04T00:56:32.631Z,0.00
2018-07-04T00:57:32.620Z,0.00
2018-07-04T00:58:32.604Z,0.00
2018-07-04T00:59:32.596Z,0.00
2018-07-04T01:00:32.578Z,0.00
2018-07-04T01:01:32.559Z,0.00
2018-07-04T01:02:32.543Z,0.00
2018-07-04T01:03:32.545Z,0.00
2018-07-04T01:04:32.527Z,0.00
2018-07-04T01:05:32.504Z,0.00
2018-07-04T01:06:32.483Z,0.00
2018-07-04T01:07:32.468Z,0.00
2018-07-04T01:08:32.455Z,0.00
2018-07-04T01:09:32.439Z,0.00
2018-07-04T01:10:32.432Z,0.00
2018-07-04T01:11:32.409Z,0.00
2018-07-04T01:12:32.395Z,0.00
2018-07-04T01:13:32.381Z,0.00
2018-07-04T01:14:32.363Z,0.00
2018-07-04T01:15:32.361Z,0.00
2018-07-04T01:16:32.333Z,0.00
2018-07-04T01:17:32.319Z,0.00
2018-07-04T01:18:32.305Z,0.00
2018-07-04T01:19:32.288Z,0.00
2018-07-04T01:20:32.286Z,0.00
2018-07-04T01:21:32.259Z,0.00
2018-07-04T01:22:32.243Z,0.00
2018-07-04T01:23:32.228Z,0.00
2018-07-04T01:24:32.214Z,0.00
2018-07-04T01:25:32.200Z,0.00
2018-07-04T01:26:32.192Z,0.00
2018-07-04T01:27:32.172Z,0.00
2018-07-04T01:28:32.157Z,0.00
2018-07-04T01:29:32.141Z,0.00
2018-07-04T01:30:32.123Z,0.00
2018-07-04T01:31:32.118Z,0.00
2018-07-04T01:32:32.095Z,0.00
2018-07-04T01:33:32.081Z,0.00
2018-07-04T01:34:32.064Z,0.00
2018-07-04T01:35:32.050Z,0.00
2018-07-04T01:36:32.069Z,0.00
2018-07-04T01:37:32.020Z,0.00
2018-07-04T01:38:32.006Z,0.00
2018-07-04T01:39:31.989Z,0.00
2018-07-04T01:40:31.974Z,0.00
2018-07-04T01:41:31.959Z,0.00
2018-07-04T01:42:31.953Z,0.00
2018-07-04T01:43:31.927Z,0.00
2018-07-04T01:44:31.912Z,0.00
2018-07-04T01:45:31.900Z,0.00
2018-07-04T01:46:31.893Z,0.00
2018-07-04T01:47:31.884Z,0.00
2018-07-04T01:48:31.854Z,0.00
2018-07-04T01:49:31.838Z,0.00
2018-07-04T01:50:31.822Z,0.00
2018-07-04T01:51:31.809Z,0.00
2018-07-04T01:52:31.823Z,0.00
2018-07-04T01:53:31.776Z,0.00
2018-07-04T01:54:31.763Z,0.00
2018-07-04T01:55:31.749Z,0.00
2018-07-04T01:56:31.732Z,0.00
2018-07-04T01:57:31.719Z,0.00
2018-07-04T01:58:31.716Z,0.00
2018-07-04T01:59:31.687Z,0.00
2018-07-04T02:00:31.673Z,0.00
2018-07-04T02:01:31.662Z,0.00
2018-07-04T02:02:31.642Z,0.00
2018-07-04T02:03:31.639Z,0.00
2018-07-04T02:04:31.612Z,0.00
2018-07-04T02:05:31.597Z,0.00
2018-07-04T02:06:31.581Z,0.00
2018-07-04T02:07:31.566Z,0.00
2018-07-04T02:08:31.563Z,0.00
2018-07-04T02:09:31.538Z,0.00
2018-07-04T02:10:31.521Z,0.00
2018-07-04T02:11:31.507Z,0.00
2018-07-04T02:12:31.492Z,0.00
2018-07-04T02:13:31.485Z,0.00
2018-07-04T02:14:31.460Z,0.00
2018-07-04T02:15:31.456Z,0.00
2018-07-04T02:16:31.430Z,0.00
2018-07-04T02:17:31.419Z,0.00
2018-07-04T02:18:31.404Z,0.00
2018-07-04T02:19:31.395Z,0.00
2018-07-04T02:20:31.370Z,0.00
2018-07-04T02:21:31.356Z,0.00
2018-07-04T02:22:31.338Z,0.00
2018-07-04T02:23:31.342Z,0.00
2018-07-04T02:24:31.313Z,0.00
2018-07-04T02:25:31.294Z,0.00
2018-07-04T02:26:31.278Z,0.00
2018-07-04T02:27:31.264Z,0.00
2018-07-04T02:28:31.252Z,0.00
2018-07-04T02:29:31.268Z,0.00
2018-07-04T02:30:31.224Z,0.00
2018-07-04T02:31:31.204Z,0.00
2018-07-04T02:32:31.189Z,0.00
2018-07-04T02:33:31.181Z,0.00
2018-07-04T02:34:31.168Z,0.00
2018-07-04T02:35:31.156Z,0.00
2018-07-04T02:36:31.128Z,0.00
2018-07-04T02:37:31.114Z,0.00
2018-07-04T02:38:31.102Z,0.00
2018-07-04T02:39:31.092Z,0.00
2018-07-04T02:40:31.069Z,0.00
2018-07-04T02:41:31.054Z,0.00
2018-07-04T02:42:31.043Z,0.00
2018-07-04T02:43:31.024Z,0.00
2018-07-04T02:44:31.024Z,0.00
2018-07-04T02:45:30.995Z,0.00
2018-07-04T02:46:30.978Z,0.00
2018-07-04T02:47:30.963Z,0.00
2018-07-04T02:48:30.951Z,0.00
2018-07-04T02:49:30.936Z,0.00
2018-07-04T02:50:30.928Z,0.00
2018-07-04T02:51:30.903Z,0.00
2018-07-04T02:52:30.889Z,0.00
2018-07-04T02:53:30.873Z,0.00
2018-07-04T02:54:30.857Z,0.00
2018-07-04T02:55:30.853Z,0.00
2018-07-04T02:56:30.828Z,0.00
2018-07-04T02:57:30.813Z,0.00
2018-07-04T02:58:30.797Z,0.00
2018-07-04T02:59:30.782Z,0.00
2018-07-04T03:00:30.795Z,0.00
2018-07-04T03:01:30.753Z,0.00
2018-07-04T03:02:30.739Z,0.00
2018-07-04T03:03:30.724Z,0.00
2018-07-04T03:04:30.712Z,0.00
2018-07-04T03:05:30.707Z,0.00
2018-07-04T03:06:30.677Z,0.00
2018-07-04T03:07:30.663Z,0.00
2018-07-04T03:08:30.648Z,0.00
2018-07-04T03:09:30.632Z,0.00
2018-07-04T03:10:30.616Z,0.00
2018-07-04T03:11:30.616Z,0.00
2018-07-04T03:12:30.634Z,0.00
2018-07-04T03:13:30.572Z,0.00
2018-07-04T03:14:30.556Z,0.00
2018-07-04T03:15:30.542Z,5.63
2018-07-04T03:16:30.537Z,5.63
2018-07-04T03:17:30.512Z,5.63
2018-07-04T03:18:30.496Z,5.63
2018-07-04T03:19:30.482Z,5.63
2018-07-04T03:20:30.468Z,5.63
2018-07-04T03:21:30.466Z,5.63
2018-07-04T03:22:30.436Z,5.63
2018-07-04T03:23:30.421Z,5.63
2018-07-04T03:24:30.406Z,5.63
2018-07-04T03:25:30.390Z,5.63
2018-07-04T03:26:30.377Z,11.25
2018-07-04T03:27:30.372Z,11.25
2018-07-04T03:28:30.348Z,11.25
2018-07-04T03:29:30.332Z,11.25
2018-07-04T03:30:30.315Z,11.25
2018-07-04T03:31:30.300Z,11.25
2018-07-04T03:32:30.298Z,16.88
2018-07-04T03:33:30.270Z,16.88
2018-07-04T03:34:30.255Z,16.88
2018-07-04T03:35:30.240Z,16.88
2018-07-04T03:36:30.225Z,16.88
2018-07-04T03:37:30.214Z,22.50
2018-07-04T03:38:30.204Z,22.50
2018-07-04T03:39:30.179Z,22.50
2018-07-04T03:40:30.164Z,22.50
2018-07-04T03:41:30.150Z,28.13
2018-07-04T03:42:30.134Z,28.13
2018-07-04T03:43:30.133Z,28.13
2018-07-04T03:44:30.104Z,33.75
2018-07-04T03:45:30.090Z,33.75
2018-07-04T03:46:30.085Z,33.75
2018-07-04T03:47:30.060Z,39.38
2018-07-04T03:48:30.044Z,39.38
2018-07-04T03:49:30.039Z,45.00
2018-07-04T03:50:30.014Z,45.00
2018-07-04T03:51:29.999Z,45.00
2018-07-04T03:52:29.984Z,50.63
2018-07-04T03:53:29.968Z,50.63
2018-07-04T03:54:29.966Z,50.63
2018-07-04T03:55:29.939Z,56.25
2018-07-04T03:56:29.924Z,56.25
2018-07-04T03:57:29.911Z,61.88
2018-07-04T03:58:29.893Z,61.88
2018-07-04T03:59:29.890Z,61.88
2018-07-04T04:00:29.862Z,67.50
2018-07-04T04:01:29.851Z,67.50
2018-07-04T04:02:29.834Z,67.50
2018-07-04T04:03:29.817Z,67.50
2018-07-04T04:04:29.812Z,73.13
2018-07-04T04:05:29.789Z,73.13
2018-07-04T04:06:29.773Z,78.75
2018-07-04T04:07:29.758Z,78.75
2018-07-04T04:08:29.743Z,84.38
2018-07-04T04:09:29.741Z,84.38
2018-07-04T04:10:29.711Z,84.38
2018-07-04T04:11:29.696Z,90.00
2018-07-04T04:12:29.681Z,90.00
2018-07-04T04:13:29.666Z,95.63
2018-07-04T04:14:29.649Z,95.63
2018-07-04T04:15:29.645Z,101.25
2018-07-04T04:16:29.620Z,101.25
2018-07-04T04:17:29.636Z,106.88
2018-07-04T04:18:29.589Z,106.88
2018-07-04T04:19:29.575Z,112.50
2018-07-04T04:20:29.570Z,112.50
2018-07-04T04:21:29.546Z,118.13
2018-07-04T04:22:29.530Z,118.13
2018-07-04T04:23:29.514Z,118.13
2018-07-04T04:24:29.498Z,123.75
2018-07-04T04:25:29.493Z,123.75
2018-07-04T04:26:29.468Z,129.38
2018-07-04T04:27:29.453Z,129.38
2018-07-04T04:28:29.436Z,135.00
2018-07-04T04:29:29.422Z,135.00
2018-07-04T04:30:29.411Z,140.63
2018-07-04T04:31:29.390Z,140.63
2018-07-04T04:32:29.380Z,146.25
2018-07-04T04:33:29.366Z,146.25
2018-07-04T04:34:29.345Z,151.88
2018-07-04T04:35:29.344Z,151.88
2018-07-04T04:36:29.316Z,151.88
2018-07-04T04:37:29.299Z,157.50
2018-07-04T04:38:29.288Z,163.13
2018-07-04T04:39:29.271Z,168.75
2018-07-04T04:40:29.259Z,168.75
2018-07-04T04:41:29.251Z,174.38
2018-07-04T04:42:29.284Z,174.38
2018-07-04T04:43:29.209Z,180.00
2018-07-04T04:44:29.195Z,180.00
2018-07-04T04:45:29.189Z,185.63
2018-07-04T04:46:29.175Z,185.63
2018-07-04T04:47:29.148Z,191.25
2018-07-04T04:48:29.134Z,196.88
2018-07-04T04:49:29.121Z,196.88
2018-07-04T04:50:29.104Z,202.50
2018-07-04T04:51:29.102Z,202.50
2018-07-04T04:52:29.073Z,202.50
2018-07-04T04:53:29.059Z,208.13
2018-07-04T04:54:29.042Z,208.13
2018-07-04T04:55:29.028Z,208.13
2018-07-04T04:56:29.013Z,213.75
2018-07-04T04:57:29.008Z,219.38
2018-07-04T04:58:28.984Z,225.00
2018-07-04T04:59:28.967Z,230.63
2018-07-04T05:00:28.957Z,236.25
2018-07-04T05:01:28.940Z,236.25
2018-07-04T05:02:28.933Z,241.88
2018-07-04T05:03:28.908Z,241.88
2018-07-04T05:04:28.893Z,247.50
2018-07-04T05:05:28.880Z,253.13
2018-07-04T05:06:28.863Z,258.75
2018-07-04T05:07:28.865Z,264.38
2018-07-04T05:08:28.836Z,270.00
2018-07-04T05:09:28.820Z,275.63
2018-07-04T05:10:29.480Z,281.25
2018-07-04T05:11:28.789Z,281.25
2018-07-04T05:12:28.775Z,286.88
2018-07-04T05:13:28.770Z,286.88
2018-07-04T05:14:28.746Z,292.50
2018-07-04T05:15:28.731Z,292.50
2018-07-04T05:16:28.715Z,286.88
2018-07-04T05:17:28.704Z,292.50
2018-07-04T05:18:28.698Z,298.13
2018-07-04T05:19:28.672Z,298.13
2018-07-04T05:20:28.656Z,303.75
2018-07-04T05:21:28.645Z,309.38
2018-07-04T05:22:28.627Z,309.38
2018-07-04T05:23:28.622Z,315.00
2018-07-04T05:24:28.599Z,320.63
2018-07-04T05:25:28.586Z,326.25
2018-07-04T05:26:28.570Z,331.88
2018-07-04T05:27:28.560Z,337.50
2018-07-04T05:28:28.555Z,337.50
2018-07-04T05:29:28.526Z,343.13
2018-07-04T05:30:28.513Z,337.50
2018-07-04T05:31:28.509Z,331.88
2018-07-04T05:32:28.484Z,326.25
2018-07-04T05:33:28.478Z,326.25
2018-07-04T05:34:28.471Z,326.25
2018-07-04T05:35:28.440Z,326.25
2018-07-04T05:36:28.425Z,326.25
2018-07-04T05:37:28.416Z,326.25
2018-07-04T05:38:28.427Z,326.25
2018-07-04T05:39:28.383Z,326.25
2018-07-04T05:40:28.366Z,331.88
2018-07-04T05:41:28.353Z,337.50
2018-07-04T05:42:28.339Z,343.13
2018-07-04T05:43:28.324Z,348.75
2018-07-04T05:44:28.353Z,348.75
2018-07-04T05:45:28.301Z,348.75
2018-07-04T05:46:28.282Z,348.75
2018-07-04T05:47:28.266Z,348.75
2018-07-04T05:48:28.252Z,354.38
2018-07-04T05:49:28.248Z,354.38
2018-07-04T05:50:28.224Z,354.38
2018-07-04T05:51:28.210Z,360.00
2018-07-04T05:52:28.199Z,360.00
2018-07-04T05:53:28.182Z,360.00
2018-07-04T05:54:28.178Z,354.38
2018-07-04T05:55:28.153Z,360.00
2018-07-04T05:56:28.139Z,360.00
2018-07-04T05:57:28.125Z,365.63
2018-07-04T05:58:28.111Z,365.63
2018-07-04T05:59:28.108Z,365.63
2018-07-04T06:00:28.083Z,365.63
2018-07-04T06:01:28.070Z,365.63
2018-07-04T06:02:28.055Z,360.00
2018-07-04T06:03:28.041Z,360.00
2018-07-04T06:04:28.028Z,371.25
2018-07-04T06:05:28.023Z,371.25
2018-07-04T06:06:28.000Z,371.25
2018-07-04T06:07:27.986Z,376.88
2018-07-04T06:08:27.975Z,376.88
2018-07-04T06:09:27.960Z,365.63
2018-07-04T06:10:27.959Z,354.38
2018-07-04T06:11:27.932Z,354.38
2018-07-04T06:12:27.919Z,360.00
2018-07-04T06:13:27.905Z,354.38
2018-07-04T06:14:27.894Z,354.38
2018-07-04T06:15:27.878Z,354.38
2018-07-04T06:16:27.904Z,354.38
2018-07-04T06:17:27.856Z,354.38
2018-07-04T06:18:27.837Z,348.75
2018-07-04T06:19:27.823Z,348.75
2018-07-04T06:20:27.811Z,348.75
2018-07-04T06:21:27.808Z,348.75
2018-07-04T06:22:27.784Z,348.75
2018-07-04T06:23:27.774Z,354.38
2018-07-04T06:24:27.760Z,360.00
2018-07-04T06:25:27.744Z,376.88
2018-07-04T06:26:27.761Z,388.13
2018-07-04T06:27:27.716Z,405.00
2018-07-04T06:28:27.704Z,410.63
2018-07-04T06:29:27.693Z,421.88
2018-07-04T06:30:27.677Z,433.13
2018-07-04T06:31:27.663Z,438.75
2018-07-04T06:32:27.688Z,444.38
2018-07-04T06:33:27.637Z,461.25
2018-07-04T06:34:27.624Z,472.50
2018-07-04T06:35:27.611Z,478.13
2018-07-04T06:36:27.599Z,489.38
2018-07-04T06:37:27.598Z,500.63
2018-07-04T06:38:27.581Z,511.88
2018-07-04T06:39:27.565Z,523.13
2018-07-04T06:40:27.544Z,528.75
2018-07-04T06:41:27.531Z,540.00
2018-07-04T06:42:27.528Z,545.63
2018-07-04T06:43:27.506Z,556.88
2018-07-04T06:44:27.494Z,573.75
2018-07-04T06:45:27.482Z,590.63
2018-07-04T06:46:27.471Z,596.25
2018-07-04T06:47:27.467Z,607.50
2018-07-04T06:48:27.443Z,607.50
2018-07-04T06:49:27.440Z,607.50
2018-07-04T06:50:27.419Z,613.13
2018-07-04T06:51:27.406Z,601.88
2018-07-04T06:52:27.406Z,596.25
2018-07-04T06:53:27.382Z,585.00
2018-07-04T06:54:27.436Z,573.75
2018-07-04T06:55:27.356Z,562.50
2018-07-04T06:56:27.347Z,540.00
2018-07-04T06:57:27.342Z,523.13
2018-07-04T06:58:27.320Z,511.88
2018-07-04T06:59:27.310Z,495.00
2018-07-04T07:00:27.298Z,495.00
2018-07-04T07:01:27.286Z,478.13
2018-07-04T07:02:27.326Z,478.13
2018-07-04T07:03:27.264Z,466.88
2018-07-04T07:04:27.251Z,461.25
2018-07-04T07:05:27.241Z,455.63
2018-07-04T07:06:27.228Z,455.63
2018-07-04T07:07:27.215Z,455.63
2018-07-04T07:08:27.230Z,461.25
2018-07-04T07:09:27.192Z,455.63
2018-07-04T07:10:27.180Z,433.13
2018-07-04T07:11:27.170Z,450.00
2018-07-04T07:12:27.158Z,450.00
2018-07-04T07:13:27.154Z,427.50
2018-07-04T07:14:27.147Z,444.38
2018-07-04T07:15:27.124Z,450.00
2018-07-04T07:16:27.113Z,450.00
2018-07-04T07:17:27.102Z,433.13
2018-07-04T07:18:27.098Z,410.63
2018-07-04T07:19:27.076Z,410.63
2018-07-04T07:20:27.067Z,450.00
2018-07-04T07:21:27.056Z,410.63
2018-07-04T07:22:27.043Z,444.38
2018-07-04T07:23:27.066Z,427.50
2018-07-04T07:24:27.020Z,427.50
2018-07-04T07:25:27.010Z,421.88
2018-07-04T07:26:26.998Z,421.88
2018-07-04T07:27:27.016Z,427.50
2018-07-04T07:28:26.979Z,433.13
2018-07-04T07:29:26.973Z,450.00
2018-07-04T07:30:26.953Z,455.63
2018-07-04T07:31:26.941Z,466.88
2018-07-04T07:32:26.934Z,466.88
2018-07-04T07:33:26.942Z,478.13
2018-07-04T07:34:26.911Z,478.13
2018-07-04T07:35:26.895Z,472.50
2018-07-04T07:36:26.883Z,472.50
2018-07-04T07:37:26.871Z,472.50
2018-07-04T07:38:26.860Z,472.50
2018-07-04T07:39:26.859Z,478.13
2018-07-04T07:40:26.838Z,478.13
2018-07-04T07:41:26.826Z,478.13
2018-07-04T07:42:26.816Z,478.13
2018-07-04T07:43:26.806Z,483.75
2018-07-04T07:44:26.804Z,483.75
2018-07-04T07:45:26.783Z,483.75
2018-07-04T07:46:26.770Z,483.75
2018-07-04T07:47:26.759Z,489.38
2018-07-04T07:48:26.751Z,489.38
2018-07-04T07:49:26.752Z,495.00
2018-07-04T07:50:26.730Z,495.00
2018-07-04T07:51:26.715Z,495.00
2018-07-04T07:52:26.706Z,500.63
2018-07-04T07:53:26.695Z,506.25
2018-07-04T07:54:26.749Z,511.88
2018-07-04T07:55:26.681Z,517.50
2018-07-04T07:56:26.659Z,523.13
2018-07-04T07:57:26.648Z,528.75
2018-07-04T07:58:26.636Z,540.00
2018-07-04T07:59:26.628Z,540.00
2018-07-04T08:00:26.628Z,545.63
2018-07-04T08:01:26.606Z,545.63
2018-07-04T08:02:26.593Z,556.88
2018-07-04T08:03:26.580Z,562.50
2018-07-04T08:04:26.575Z,568.13
2018-07-04T08:05:26.573Z,579.38
2018-07-04T08:06:26.554Z,590.63
2018-07-04T08:07:26.541Z,596.25
2018-07-04T08:08:26.531Z,607.50
2018-07-04T08:09:26.519Z,613.13
2018-07-04T08:10:26.520Z,641.25
2018-07-04T08:11:26.500Z,652.50
2018-07-04T08:12:26.495Z,669.38
2018-07-04T08:13:26.476Z,646.88
2018-07-04T08:14:26.465Z,641.25
2018-07-04T08:15:26.455Z,658.13
2018-07-04T08:16:26.456Z,663.75
2018-07-04T08:17:26.435Z,675.00
2018-07-04T08:18:26.424Z,686.25
2018-07-04T08:19:26.417Z,691.88
2018-07-04T08:20:26.403Z,697.50
2018-07-04T08:21:26.401Z,714.38
2018-07-04T08:22:26.382Z,725.63
2018-07-04T08:23:26.373Z,742.50
2018-07-04T08:24:26.363Z,759.38
2018-07-04T08:25:26.353Z,770.63
2018-07-04T08:26:26.385Z,781.88
2018-07-04T08:27:26.335Z,798.75
2018-07-04T08:28:26.322Z,804.38
2018-07-04T08:29:26.313Z,810.00
2018-07-04T08:30:26.304Z,815.63
2018-07-04T08:31:26.293Z,810.00
2018-07-04T08:32:26.296Z,804.38
2018-07-04T08:33:26.325Z,804.38
2018-07-04T08:34:26.262Z,787.50
2018-07-04T08:35:26.259Z,787.50
2018-07-04T08:36:26.243Z,793.13
2018-07-04T08:37:26.244Z,804.38
2018-07-04T08:38:26.226Z,804.38
2018-07-04T08:39:26.216Z,826.88
2018-07-04T08:40:26.207Z,838.13
2018-07-04T08:41:26.195Z,860.63
2018-07-04T08:42:26.202Z,900.00
2018-07-04T08:43:26.182Z,922.50
2018-07-04T08:44:26.168Z,950.63
2018-07-04T08:45:26.164Z,973.13
2018-07-04T08:46:26.152Z,973.13
2018-07-04T08:47:26.140Z,978.75
2018-07-04T08:48:26.147Z,961.88
2018-07-04T08:49:26.127Z,950.63
2018-07-04T08:50:26.114Z,933.75
2018-07-04T08:51:26.104Z,933.75
2018-07-04T08:52:26.094Z,939.38
2018-07-04T08:53:26.095Z,950.63
2018-07-04T08:54:26.076Z,922.50
2018-07-04T08:55:26.069Z,945.00
2018-07-04T08:56:26.063Z,905.63
2018-07-04T08:57:26.049Z,911.25
2018-07-04T08:58:26.115Z,900.00
2018-07-04T08:59:26.030Z,900.00
2018-07-04T09:00:26.022Z,894.38
2018-07-04T09:01:26.013Z,894.38
2018-07-04T09:02:26.004Z,877.50
2018-07-04T09:03:25.995Z,871.88
2018-07-04T09:04:25.996Z,871.88
2018-07-04T09:05:25.977Z,877.50
2018-07-04T09:06:25.967Z,883.13
2018-07-04T09:07:25.959Z,883.13
2018-07-04T09:08:25.950Z,900.00
2018-07-04T09:09:25.952Z,900.00
2018-07-04T09:10:25.934Z,905.63
2018-07-04T09:11:25.971Z,911.25
2018-07-04T09:12:25.913Z,911.25
2018-07-04T09:13:25.907Z,905.63
2018-07-04T09:14:25.907Z,911.25
2018-07-04T09:15:25.887Z,922.50
2018-07-04T09:16:25.882Z,933.75
2018-07-04T09:17:25.871Z,945.00
2018-07-04T09:18:25.861Z,945.00
2018-07-04T09:19:25.862Z,950.63
2018-07-04T09:20:25.844Z,928.13
2018-07-04T09:21:25.836Z,945.00
2018-07-04T09:22:25.826Z,945.00
2018-07-04T09:23:25.819Z,945.00
2018-07-04T09:24:25.853Z,933.75
2018-07-04T09:25:25.799Z,945.00
2018-07-04T09:26:25.792Z,933.75
2018-07-04T09:27:25.787Z,933.75
2018-07-04T09:28:25.773Z,928.13
2018-07-04T09:29:25.773Z,928.13
2018-07-04T09:30:25.753Z,933.75
2018-07-04T09:31:25.744Z,945.00
2018-07-04T09:32:25.739Z,939.38
2018-07-04T09:33:25.728Z,933.75
2018-07-04T09:34:25.730Z,928.13
2018-07-04T09:35:25.715Z,928.13
2018-07-04T09:36:25.701Z,922.50
2018-07-04T09:37:25.692Z,916.88
2018-07-04T09:38:25.720Z,911.25
2018-07-04T09:39:25.689Z,905.63
2018-07-04T09:40:25.664Z,877.50
2018-07-04T09:41:25.657Z,866.25
2018-07-04T09:42:25.648Z,843.75
2018-07-04T09:43:25.644Z,821.25
2018-07-04T09:44:25.630Z,810.00
2018-07-04T09:45:25.634Z,770.63
2018-07-04T09:46:25.608Z,748.13
2018-07-04T09:47:25.604Z,720.00
2018-07-04T09:48:25.598Z,697.50
2018-07-04T09:49:25.584Z,686.25
2018-07-04T09:50:25.587Z,641.25
2018-07-04T09:51:25.569Z,624.38
2018-07-04T09:52:25.554Z,601.88
2018-07-04T09:53:25.546Z,585.00
2018-07-04T09:54:25.536Z,562.50
2018-07-04T09:55:25.537Z,551.25
2018-07-04T09:56:25.518Z,545.63
2018-07-04T09:57:25.508Z,545.63
2018-07-04T09:58:25.499Z,545.63
2018-07-04T09:59:25.491Z,551.25
2018-07-04T10:00:25.594Z,562.50
2018-07-04T10:01:25.475Z,579.38
2018-07-04T10:02:25.463Z,596.25
2018-07-04T10:03:25.453Z,624.38
2018-07-04T10:04:25.443Z,646.88
2018-07-04T10:05:25.435Z,686.25
2018-07-04T10:06:25.437Z,725.63
2018-07-04T10:07:25.415Z,765.00
2018-07-04T10:08:25.414Z,793.13
2018-07-04T10:09:25.397Z,832.50
2018-07-04T10:10:25.387Z,871.88
2018-07-04T10:11:25.386Z,916.88
2018-07-04T10:12:25.368Z,978.75
2018-07-04T10:13:25.362Z,1012.50
2018-07-04T10:14:25.351Z,1063.13
2018-07-04T10:15:25.340Z,1074.38
2018-07-04T10:16:25.344Z,1096.88
2018-07-04T10:17:25.323Z,1091.25
2018-07-04T10:18:25.355Z,1096.88
2018-07-04T10:19:25.300Z,1102.50
2018-07-04T10:20:25.291Z,1113.75
2018-07-04T10:21:25.291Z,1136.25
2018-07-04T10:22:25.270Z,1158.75
2018-07-04T10:23:25.265Z,1164.38
2018-07-04T10:24:25.265Z,1147.50
2018-07-04T10:25:25.244Z,1158.75
2018-07-04T10:26:25.248Z,1136.25
2018-07-04T10:27:25.224Z,1119.38
2018-07-04T10:28:25.215Z,1113.75
2018-07-04T10:29:25.206Z,1108.13
2018-07-04T10:30:25.198Z,1108.13
2018-07-04T10:31:25.191Z,1074.38
2018-07-04T10:32:25.188Z,1040.63
2018-07-04T10:33:25.170Z,1012.50
2018-07-04T10:34:25.186Z,995.63
2018-07-04T10:35:25.152Z,990.00
2018-07-04T10:36:25.142Z,973.13
2018-07-04T10:37:25.146Z,973.13
2018-07-04T10:38:25.125Z,961.88
2018-07-04T10:39:25.117Z,967.50
2018-07-04T10:40:25.107Z,973.13
2018-07-04T10:41:25.099Z,973.13
2018-07-04T10:42:25.099Z,984.38
2018-07-04T10:43:25.081Z,990.00
2018-07-04T10:44:25.073Z,1001.25
2018-07-04T10:45:25.065Z,1018.13
2018-07-04T10:46:25.057Z,1035.00
2018-07-04T10:47:25.055Z,1057.50
2018-07-04T10:48:25.040Z,1074.38
2018-07-04T10:49:25.028Z,1091.25
2018-07-04T10:50:25.020Z,1108.13
2018-07-04T10:51:25.010Z,1130.63
2018-07-04T10:52:25.010Z,1130.63
2018-07-04T10:53:24.994Z,1113.75
2018-07-04T10:54:24.983Z,1091.25
2018-07-04T10:55:24.975Z,1063.13
2018-07-04T10:56:24.969Z,1029.38
2018-07-04T10:57:24.970Z,1023.75
2018-07-04T10:58:24.974Z,1012.50
2018-07-04T10:59:24.951Z,1012.50
2018-07-04T11:00:24.935Z,1023.75
2018-07-04T11:01:24.929Z,1035.00
2018-07-04T11:02:24.929Z,1040.63
2018-07-04T11:03:24.905Z,1051.88
2018-07-04T11:04:24.899Z,1057.50
2018-07-04T11:05:24.889Z,1063.13
2018-07-04T11:06:24.879Z,1057.50
2018-07-04T11:07:24.881Z,1057.50
2018-07-04T11:08:24.862Z,1063.13
2018-07-04T11:09:24.854Z,1074.38
2018-07-04T11:10:24.844Z,1080.00
2018-07-04T11:11:24.882Z,1102.50
2018-07-04T11:12:24.838Z,1108.13
2018-07-04T11:13:24.819Z,1119.38
2018-07-04T11:14:24.808Z,1119.38
2018-07-04T11:15:24.800Z,1125.00
2018-07-04T11:16:24.791Z,1130.63
2018-07-04T11:17:24.795Z,1125.00
2018-07-04T11:18:24.774Z,1119.38
2018-07-04T11:19:24.767Z,1113.75
2018-07-04T11:20:24.761Z,1113.75
2018-07-04T11:21:24.749Z,1119.38
2018-07-04T11:22:24.825Z,1119.38
2018-07-04T11:23:24.732Z,1125.00
2018-07-04T11:24:24.725Z,1130.63
2018-07-04T11:25:24.718Z,1141.88
2018-07-04T11:26:24.705Z,1153.13
2018-07-04T11:27:24.709Z,1153.13
2018-07-04T11:28:24.704Z,1158.75
2018-07-04T11:29:24.682Z,1158.75
2018-07-04T11:30:24.672Z,1164.38
2018-07-04T11:31:24.664Z,1170.00
2018-07-04T11:32:24.666Z,1175.63
2018-07-04T11:33:24.647Z,1181.25
2018-07-04T11:34:24.637Z,1181.25
2018-07-04T11:35:24.627Z,1175.63
2018-07-04T11:36:24.622Z,1181.25
2018-07-04T11:37:24.626Z,1175.63
2018-07-04T11:38:24.658Z,1181.25
2018-07-04T11:39:24.596Z,1175.63
2018-07-04T11:40:24.586Z,1164.38
2018-07-04T11:41:24.579Z,1153.13
2018-07-04T11:42:24.573Z,1136.25
2018-07-04T11:43:24.571Z,1108.13
2018-07-04T11:44:24.554Z,1068.75
2018-07-04T11:45:24.546Z,1035.00
2018-07-04T11:46:24.533Z,990.00
2018-07-04T11:47:24.528Z,950.63
2018-07-04T11:48:24.532Z,939.38
2018-07-04T11:49:24.508Z,945.00
2018-07-04T11:50:24.502Z,967.50
2018-07-04T11:51:24.494Z,990.00
2018-07-04T11:52:24.482Z,1006.88
2018-07-04T11:53:24.473Z,1018.13
2018-07-04T11:54:24.474Z,1035.00
2018-07-04T11:55:24.515Z,1040.63
2018-07-04T11:56:24.466Z,1018.13
2018-07-04T11:57:24.441Z,995.63
2018-07-04T11:58:24.427Z,956.25
2018-07-04T11:59:24.433Z,905.63
2018-07-04T12:00:24.415Z,849.38
2018-07-04T12:01:24.404Z,804.38
2018-07-04T12:02:24.395Z,781.88
2018-07-04T12:03:24.385Z,765.00
2018-07-04T12:04:24.389Z,776.25
2018-07-04T12:05:24.389Z,781.88
2018-07-04T12:06:24.364Z,793.13
2018-07-04T12:07:24.351Z,798.75
2018-07-04T12:08:24.374Z,798.75
2018-07-04T12:09:24.333Z,793.13
2018-07-04T12:10:24.326Z,776.25
2018-07-04T12:11:24.316Z,765.00
2018-07-04T12:12:24.306Z,748.13
2018-07-04T12:13:24.298Z,736.88
2018-07-04T12:14:24.296Z,720.00
2018-07-04T12:15:24.280Z,703.13
2018-07-04T12:16:24.274Z,686.25
2018-07-04T12:17:24.262Z,663.75
2018-07-04T12:18:24.259Z,658.13
2018-07-04T12:19:24.251Z,646.88
2018-07-04T12:20:24.233Z,641.25
2018-07-04T12:21:24.225Z,624.38
2018-07-04T12:22:24.214Z,607.50
2018-07-04T12:23:24.206Z,590.63
2018-07-04T12:24:24.213Z,573.75
2018-07-04T12:25:24.190Z,562.50
2018-07-04T12:26:24.180Z,540.00
2018-07-04T12:27:24.169Z,523.13
2018-07-04T12:28:24.160Z,506.25
2018-07-04T12:29:24.182Z,483.75
2018-07-04T12:30:24.140Z,461.25
2018-07-04T12:31:24.131Z,444.38
2018-07-04T12:32:24.120Z,433.13
2018-07-04T12:33:24.112Z,416.25
2018-07-04T12:34:24.104Z,399.38
2018-07-04T12:35:24.104Z,388.13
2018-07-04T12:36:24.088Z,371.25
2018-07-04T12:37:24.100Z,360.00
2018-07-04T12:38:24.064Z,343.13
2018-07-04T12:39:24.057Z,331.88
2018-07-04T12:40:24.056Z,326.25